Time;durP1;ratioP1;P1;durP2;ratioP2;P2;SDS_P1;SDS_P2;PMS_P1;PMS_P2;Temp;Humidity;BMP_temperature;BMP_pressure;BME280_temperature;BME280_humidity;BME280_pressure;Samples;Min_cycle;Max_cycle;Signal;HPM_P1;HPM_P2
2024/02/11 00:01:45;;;;;;;57.73;33.13;;;5.10;96.80;;;;;;5035045;28;20711;-90
2024/02/11 00:04:11;;;;;;;55.83;32.57;;;5.10;96.80;;;;;;5017794;28;20173;-89
2024/02/11 00:06:36;;;;;;;62.23;34.23;;;5.10;96.80;;;;;;5034521;28;20255;-90
2024/02/11 00:09:03;;;;;;;59.83;33.33;;;5.10;96.80;;;;;;5017091;28;20192;-89
2024/02/11 00:11:28;;;;;;;64.80;33.87;;;5.10;96.80;;;;;;5017468;28;20177;-89
2024/02/11 00:13:55;;;;;;;51.60;30.07;;;5.00;96.80;;;;;;5017866;28;20187;-90
2024/02/11 00:16:20;;;;;;;59.20;31.87;;;5.00;96.80;;;;;;5019471;28;20187;-91
2024/02/11 00:18:48;;;;;;;49.70;28.80;;;5.00;96.80;;;;;;5019005;28;20205;-93
2024/02/11 00:21:14;;;;;;;67.10;34.53;;;5.00;96.80;;;;;;5020150;28;20295;-90
2024/02/11 00:23:42;;;;;;;59.83;33.37;;;5.00;96.80;;;;;;5019565;28;20706;-92
2024/02/11 00:26:07;;;;;;;72.10;31.07;;;5.00;96.80;;;;;;5037657;28;20165;-92
2024/02/11 00:28:33;;;;;;;70.73;32.07;;;5.00;96.80;;;;;;5019586;28;20204;-92
2024/02/11 00:30:59;;;;;;;62.47;30.23;;;5.00;96.80;;;;;;5019950;28;20188;-91
2024/02/11 00:33:25;;;;;;;61.47;30.30;;;5.00;96.80;;;;;;5019566;28;20256;-92
2024/02/11 00:35:51;;;;;;;72.23;32.87;;;5.00;96.80;;;;;;5019537;28;20286;-91
2024/02/11 00:38:17;;;;;;;74.30;31.13;;;5.00;96.80;;;;;;5018155;28;20203;-90
2024/02/11 00:40:43;;;;;;;73.27;31.77;;;5.00;96.80;;;;;;5019099;28;20200;-92
2024/02/11 00:43:09;;;;;;;65.67;32.43;;;5.00;96.80;;;;;;5018906;28;20172;-91
2024/02/11 00:45:35;;;;;;;65.47;30.17;;;5.00;96.80;;;;;;5019048;28;20177;-91
2024/02/11 00:48:03;;;;;;;76.03;32.80;;;4.90;96.80;;;;;;5019685;28;20200;-90
2024/02/11 00:50:31;;;;;;;74.73;33.93;;;5.00;96.80;;;;;;5017065;28;20184;-91
2024/02/11 00:53:05;;;;;;;72.00;33.93;;;5.00;96.90;;;;;;5019125;28;20219;-90
2024/02/11 00:55:35;;;;;;;70.17;33.03;;;4.90;96.80;;;;;;5018389;28;20171;-90
2024/02/11 00:58:03;;;;;;;65.87;29.70;;;4.90;96.80;;;;;;5019231;28;20200;-90
2024/02/11 01:00:29;;;;;;;68.03;32.17;;;4.90;96.80;;;;;;5019447;28;20204;-91
2024/02/11 01:02:54;;;;;;;72.50;32.10;;;4.90;96.80;;;;;;5019097;28;20184;-91
2024/02/11 01:05:22;;;;;;;65.47;29.00;;;5.00;96.90;;;;;;5019205;28;20173;-92
2024/02/11 01:07:48;;;;;;;68.00;29.43;;;4.90;96.80;;;;;;5020058;28;20551;-90
2024/02/11 01:10:14;;;;;;;71.40;30.00;;;5.00;96.90;;;;;;5036615;28;20199;-91
2024/02/11 01:12:42;;;;;;;69.93;30.70;;;4.90;96.90;;;;;;5017959;28;20267;-91
2024/02/11 01:15:19;;;;;;;66.27;29.97;;;4.90;96.90;;;;;;5036778;28;20172;-92
2024/02/11 01:17:45;;;;;;;58.37;26.40;;;4.90;96.90;;;;;;5019004;28;20200;-92
2024/02/11 01:20:13;;;;;;;59.90;26.90;;;4.90;96.90;;;;;;5018755;28;20196;-91
2024/02/11 01:22:40;;;;;;;70.73;30.70;;;4.90;96.90;;;;;;5019473;28;20184;-92
2024/02/11 01:25:06;;;;;;;59.47;25.57;;;4.80;96.90;;;;;;5019019;28;20181;-91
2024/02/11 01:27:33;;;;;;;60.43;26.07;;;4.80;96.90;;;;;;5018449;28;20193;-91
2024/02/11 01:29:59;;;;;;;68.73;29.10;;;4.80;96.90;;;;;;5019040;28;20180;-91
2024/02/11 01:32:24;;;;;;;57.60;26.43;;;4.80;96.90;;;;;;5019473;28;20187;-91
2024/02/11 01:34:50;;;;;;;65.53;28.50;;;4.80;96.90;;;;;;5019215;28;20187;-90
2024/02/11 01:37:16;;;;;;;63.80;29.67;;;4.80;96.90;;;;;;5017705;28;20205;-91
2024/02/11 01:39:41;;;;;;;72.87;30.37;;;4.80;96.90;;;;;;5017883;28;20266;-91
2024/02/11 01:42:07;;;;;;;77.20;29.50;;;4.80;96.90;;;;;;5017945;28;20180;-91
2024/02/11 01:44:33;;;;;;;70.97;30.13;;;4.80;97.00;;;;;;5027139;28;20225;-93
2024/02/11 01:47:00;;;;;;;72.03;31.67;;;4.80;97.00;;;;;;5020679;28;20208;-91
2024/02/11 01:49:26;;;;;;;58.67;26.47;;;4.80;97.00;;;;;;5019006;28;20172;-90
2024/02/11 01:51:52;;;;;;;70.53;29.97;;;4.80;97.00;;;;;;5018936;28;20208;-88
2024/02/11 01:54:20;;;;;;;69.77;30.63;;;4.80;97.00;;;;;;5019825;28;20204;-89
2024/02/11 01:56:50;;;;;;;70.83;30.53;;;4.80;97.00;;;;;;5036527;28;20188;-91
2024/02/11 01:59:16;;;;;;;78.23;30.40;;;4.80;97.00;;;;;;5019170;28;20200;-91
2024/02/11 02:01:42;;;;;;;66.73;26.87;;;4.80;97.00;;;;;;5036324;28;20183;-92
2024/02/11 02:04:08;;;;;;;66.30;28.97;;;4.80;97.00;;;;;;5036854;28;20177;-92
2024/02/11 02:06:34;;;;;;;64.40;28.63;;;4.80;97.00;;;;;;5019788;28;20216;-91
2024/02/11 02:09:00;;;;;;;69.57;29.03;;;4.90;97.00;;;;;;5018241;28;20275;-91
2024/02/11 02:11:26;;;;;;;60.43;29.13;;;4.80;97.00;;;;;;5019306;28;20177;-93
2024/02/11 02:13:52;;;;;;;64.17;29.03;;;4.80;97.00;;;;;;5035562;28;20180;-90
2024/02/11 02:16:17;;;;;;;73.30;30.57;;;4.80;97.00;;;;;;5017498;28;20176;-90
2024/02/11 02:18:46;;;;;;;70.07;30.27;;;4.80;97.00;;;;;;5021152;28;20203;-90
2024/02/11 02:21:12;;;;;;;78.40;31.43;;;4.80;97.00;;;;;;5021298;28;20235;-91
2024/02/11 02:23:37;;;;;;;65.57;31.57;;;4.80;97.10;;;;;;5039375;28;20172;-91
2024/02/11 02:26:08;;;;;;;74.40;35.03;;;4.80;97.00;;;;;;5022170;28;20180;-91
2024/02/11 02:28:34;;;;;;;74.53;35.50;;;4.80;97.00;;;;;;5022926;28;20258;-90
2024/02/11 02:31:00;;;;;;;67.90;34.20;;;4.80;97.00;;;;;;5040345;28;20169;-91
2024/02/11 02:33:25;;;;;;;64.93;34.23;;;4.80;97.10;;;;;;5021494;28;20214;-91
2024/02/11 02:35:52;;;;;;;74.70;33.67;;;4.80;97.10;;;;;;5021645;28;20188;-91
2024/02/11 02:38:17;;;;;;;64.73;31.30;;;4.80;97.10;;;;;;5038824;28;20207;-90
2024/02/11 02:40:43;;;;;;;77.97;33.97;;;4.80;97.10;;;;;;5020871;28;20283;-92
2024/02/11 02:43:11;;;;;;;80.73;35.37;;;4.80;97.10;;;;;;5038947;28;20176;-90
2024/02/11 02:45:38;;;;;;;78.20;34.80;;;4.80;97.10;;;;;;5020951;28;20640;-91
2024/02/11 02:48:05;;;;;;;69.23;32.70;;;4.80;97.10;;;;;;5040169;28;20189;-90
2024/02/11 02:50:30;;;;;;;79.20;35.93;;;4.80;97.10;;;;;;5021717;28;20234;-91
2024/02/11 02:52:56;;;;;;;84.40;36.40;;;4.80;97.10;;;;;;5020961;28;20200;-90
2024/02/11 02:55:21;;;;;;;90.17;35.13;;;4.80;97.10;;;;;;5039660;28;20196;-91
2024/02/11 02:57:47;;;;;;;89.17;36.53;;;4.80;97.10;;;;;;5021740;28;20225;-91
2024/02/11 03:00:14;;;;;;;81.23;34.10;;;4.80;97.10;;;;;;5021497;28;20263;-92
2024/02/11 03:02:40;;;;;;;79.63;34.50;;;4.90;97.10;;;;;;5039565;28;20645;-91
2024/02/11 03:05:05;;;;;;;77.63;33.87;;;4.80;97.10;;;;;;5022459;28;20180;-92
2024/02/11 03:07:31;;;;;;;65.50;29.13;;;4.90;97.20;;;;;;5021757;28;20196;-89
2024/02/11 03:09:57;;;;;;;71.67;32.57;;;4.90;97.10;;;;;;5021520;28;20204;-92
2024/02/11 03:12:22;;;;;;;70.93;32.50;;;4.90;97.20;;;;;;5021798;28;20645;-92
2024/02/11 03:14:49;;;;;;;62.07;30.07;;;4.90;97.20;;;;;;5022193;28;20195;-91
2024/02/11 03:17:14;;;;;;;68.20;32.10;;;4.90;97.20;;;;;;5021547;28;20207;-91
2024/02/11 03:19:43;;;;;;;72.13;33.23;;;4.90;97.20;;;;;;5039346;28;20673;-91
2024/02/11 03:22:13;;;;;;;69.77;30.70;;;4.90;97.20;;;;;;5020875;28;20188;-91
2024/02/11 03:24:44;;;;;;;73.47;31.10;;;4.90;97.20;;;;;;5038879;28;20172;-90
2024/02/11 03:27:10;;;;;;;79.27;33.97;;;4.90;97.20;;;;;;5020461;28;20171;-90
2024/02/11 03:29:36;;;;;;;64.50;29.70;;;4.90;97.20;;;;;;5020146;28;20665;-91
2024/02/11 03:32:01;;;;;;;55.43;28.43;;;4.90;97.20;;;;;;5021687;28;20177;-91
2024/02/11 03:34:27;;;;;;;57.40;28.90;;;4.90;97.20;;;;;;5038339;28;20657;-91
2024/02/11 03:36:53;;;;;;;61.93;28.33;;;4.90;97.20;;;;;;5021959;28;20597;-90
2024/02/11 03:39:24;;;;;;;61.73;28.57;;;4.90;97.20;;;;;;5020531;28;20201;-90
2024/02/11 03:41:50;;;;;;;52.10;28.30;;;4.90;97.30;;;;;;5020979;28;20175;-92
2024/02/11 03:44:17;;;;;;;61.00;30.90;;;5.00;97.20;;;;;;5020089;28;20271;-90
2024/02/11 03:46:42;;;;;;;66.30;30.90;;;5.00;97.30;;;;;;5020333;28;20180;-90
2024/02/11 03:49:08;;;;;;;65.73;31.47;;;5.00;97.20;;;;;;5019339;28;20193;-90
2024/02/11 03:51:33;;;;;;;62.10;32.47;;;5.00;97.30;;;;;;5020317;28;20224;-90
2024/02/11 03:54:01;;;;;;;62.47;24.23;;;5.00;97.30;;;;;;5038273;28;20165;-90
2024/02/11 03:56:28;;;;;;;56.53;26.63;;;4.90;97.20;;;;;;5020191;28;20719;-89
2024/02/11 03:58:57;;;;;;;51.80;23.03;;;4.90;97.20;;;;;;5039215;28;20216;-91
2024/02/11 04:01:23;;;;;;;70.43;25.67;;;5.00;97.30;;;;;;5019445;28;20239;-91
2024/02/11 04:03:48;;;;;;;53.97;25.23;;;5.00;97.20;;;;;;5020299;28;20181;-91
2024/02/11 04:06:16;;;;;;;59.47;25.60;;;5.00;97.30;;;;;;5021210;28;20168;-91
2024/02/11 04:08:42;;;;;;;64.57;27.47;;;5.00;97.30;;;;;;5020989;28;20200;-90
2024/02/11 04:11:09;;;;;;;55.47;25.93;;;4.90;97.30;;;;;;5021443;28;20179;-89
2024/02/11 04:13:36;;;;;;;58.07;25.47;;;5.00;97.30;;;;;;5037624;28;20189;-91
2024/02/11 04:16:11;;;;;;;54.63;24.60;;;5.00;97.30;;;;;;5021289;28;20176;-91
2024/02/11 04:18:39;;;;;;;61.07;25.00;;;5.00;97.30;;;;;;5021431;28;20202;-89
2024/02/11 04:21:05;;;;;;;52.73;24.73;;;5.00;97.30;;;;;;5019822;28;20200;-91
2024/02/11 04:23:33;;;;;;;56.63;25.83;;;5.00;97.30;;;;;;5019901;28;20176;-90
2024/02/11 04:26:07;;;;;;;48.03;21.83;;;4.90;97.30;;;;;;5020522;28;20169;-90
2024/02/11 04:28:35;;;;;;;50.50;25.47;;;4.90;97.20;;;;;;5021094;28;20203;-90
2024/02/11 04:31:03;;;;;;;48.60;24.30;;;5.00;97.30;;;;;;5020278;28;20188;-91
2024/02/11 04:33:32;;;;;;;50.53;24.47;;;4.90;97.30;;;;;;5020683;28;20180;-92
2024/02/11 04:36:00;;;;;;;55.93;25.83;;;5.00;97.20;;;;;;5020370;28;20187;-90
2024/02/11 04:38:27;;;;;;;48.17;23.13;;;5.00;97.20;;;;;;5018828;28;20738;-90
2024/02/11 04:40:53;;;;;;;45.97;24.10;;;5.00;97.20;;;;;;5018918;28;20208;-91
2024/02/11 04:43:18;;;;;;;55.83;25.07;;;4.90;97.20;;;;;;5018308;28;20221;-90
2024/02/11 04:45:44;;;;;;;47.37;23.30;;;4.90;97.20;;;;;;5019621;28;20220;-91
2024/02/11 04:48:11;;;;;;;56.67;26.57;;;4.90;97.20;;;;;;5018213;28;20287;-91
2024/02/11 04:50:37;;;;;;;47.87;24.33;;;4.90;97.20;;;;;;5035884;28;20176;-91
2024/02/11 04:53:03;;;;;;;50.53;24.40;;;5.00;97.20;;;;;;5018805;28;20192;-91
2024/02/11 04:55:43;;;;;;;51.80;25.60;;;5.00;97.20;;;;;;5019449;28;20224;-89
2024/02/11 04:58:14;;;;;;;50.37;21.73;;;5.00;97.20;;;;;;5018966;28;20207;-90
2024/02/11 05:00:40;;;;;;;51.83;28.97;;;5.00;97.20;;;;;;5037881;28;20248;-91
2024/02/11 05:03:06;;;;;;;62.00;32.03;;;5.00;97.20;;;;;;5037087;28;20177;-90
2024/02/11 05:05:34;;;;;;;59.70;32.13;;;5.00;97.20;;;;;;5019356;28;20599;-91
2024/02/11 05:08:02;;;;;;;57.07;29.87;;;5.00;97.20;;;;;;5018602;28;20203;-90
2024/02/11 05:10:30;;;;;;;68.30;33.27;;;5.00;97.20;;;;;;5018849;28;20176;-91
2024/02/11 05:12:59;;;;;;;65.93;31.60;;;5.00;97.20;;;;;;5019464;28;20179;-91
2024/02/11 05:15:25;;;;;;;73.30;34.03;;;5.00;97.20;;;;;;5036263;28;20548;-91
2024/02/11 05:17:54;;;;;;;70.83;34.60;;;5.00;97.20;;;;;;5036735;28;20189;-92
2024/02/11 05:20:21;;;;;;;64.17;33.00;;;5.00;97.20;;;;;;5018548;28;20204;-92
2024/02/11 05:22:48;;;;;;;72.33;35.47;;;5.00;97.20;;;;;;5018703;28;20651;-92
2024/02/11 05:25:19;;;;;;;66.67;33.30;;;5.00;97.20;;;;;;5018566;28;20196;-90
2024/02/11 05:27:48;;;;;;;74.90;34.63;;;4.90;97.20;;;;;;5018893;28;20665;-90
2024/02/11 05:30:14;;;;;;;70.93;32.90;;;4.90;97.20;;;;;;5018852;28;20267;-90
2024/02/11 05:32:40;;;;;;;76.70;35.60;;;5.00;97.20;;;;;;5017969;28;20212;-91
2024/02/11 05:35:09;;;;;;;68.00;32.80;;;5.00;97.20;;;;;;5017961;28;20169;-90
2024/02/11 05:37:35;;;;;;;67.33;32.70;;;5.00;97.20;;;;;;5017856;28;20204;-90
2024/02/11 05:40:01;;;;;;;70.07;33.00;;;5.00;97.20;;;;;;5017752;28;20200;-90
2024/02/11 05:42:26;;;;;;;63.40;32.63;;;4.90;97.20;;;;;;5019037;28;20208;-91
2024/02/11 05:44:52;;;;;;;64.53;31.67;;;5.00;97.20;;;;;;5019667;28;20283;-90
2024/02/11 05:47:17;;;;;;;69.77;33.63;;;4.90;97.20;;;;;;5019308;28;20640;-91
2024/02/11 05:49:43;;;;;;;65.87;32.23;;;4.90;97.20;;;;;;5035302;28;20242;-92
2024/02/11 05:52:09;;;;;;;60.33;31.40;;;5.00;97.20;;;;;;5020163;28;20290;-91
2024/02/11 05:54:35;;;;;;;64.97;31.10;;;5.00;97.20;;;;;;5025532;28;20176;-90
2024/02/11 05:57:00;;;;;;;;;;;5.00;97.20;;;;;;5024726;28;20417;-91
2024/02/11 05:59:26;;;;;;;65.70;32.30;;;5.00;97.20;;;;;;5025640;28;19968;-89
2024/02/11 06:01:51;;;;;;;69.17;33.00;;;5.00;97.20;;;;;;5022467;28;20184;-90
2024/02/11 06:04:17;;;;;;;64.80;32.03;;;5.00;97.20;;;;;;5021802;28;20180;-92
2024/02/11 06:06:43;;;;;;;60.87;31.10;;;5.00;97.20;;;;;;5024354;28;20632;-91
2024/02/11 06:09:13;;;;;;;53.47;30.50;;;5.00;97.10;;;;;;5021243;28;20212;-90
2024/02/11 06:11:39;;;;;;;61.73;31.20;;;5.00;97.10;;;;;;5022060;28;20609;-91
2024/02/11 06:14:05;;;;;;;68.50;33.37;;;5.00;97.10;;;;;;5038354;28;20176;-89
2024/02/11 06:16:31;;;;;;;59.23;31.93;;;5.00;97.10;;;;;;5019018;28;20215;-89
2024/02/11 06:18:56;;;;;;;65.83;33.00;;;5.00;97.10;;;;;;5018772;28;20199;-89
2024/02/11 06:21:22;;;;;;;60.30;31.27;;;5.00;97.10;;;;;;5018736;28;20287;-89
2024/02/11 06:23:47;;;;;;;62.37;32.43;;;5.00;97.10;;;;;;5036426;28;20206;-89
2024/02/11 06:26:14;;;;;;;68.10;29.50;;;5.00;97.10;;;;;;5018785;28;20184;-91
2024/02/11 06:28:40;;;;;;;58.00;27.57;;;5.00;97.10;;;;;;5018949;28;20288;-89
2024/02/11 06:31:06;;;;;;;59.57;28.53;;;5.00;97.10;;;;;;5018796;28;20219;-89
2024/02/11 06:33:31;;;;;;;60.47;29.33;;;5.00;97.10;;;;;;5018685;28;20565;-90
2024/02/11 06:35:57;;;;;;;50.03;25.97;;;5.00;97.10;;;;;;5018468;28;20184;-89
2024/02/11 06:38:23;;;;;;;48.53;24.93;;;5.00;97.00;;;;;;5018676;28;20204;-89
2024/02/11 06:40:48;;;;;;;52.70;25.67;;;5.00;97.10;;;;;;5018420;28;20701;-89
2024/02/11 06:43:15;;;;;;;57.77;29.17;;;5.00;97.00;;;;;;5018432;28;20173;-89
2024/02/11 06:45:45;;;;;;;56.70;27.70;;;5.00;97.00;;;;;;5018591;28;20172;-89
2024/02/11 06:48:12;;;;;;;57.07;28.27;;;5.00;97.00;;;;;;5019016;28;20188;-89
2024/02/11 06:50:38;;;;;;;53.20;26.93;;;5.00;97.00;;;;;;5018201;28;20218;-90
2024/02/11 06:53:04;;;;;;;54.00;28.00;;;5.00;97.00;;;;;;5018271;28;20196;-89
2024/02/11 06:55:31;;;;;;;56.33;26.37;;;5.00;97.00;;;;;;5035969;28;20530;-89
2024/02/11 06:57:57;;;;;;;53.63;28.63;;;5.00;97.00;;;;;;5018091;28;20201;-89
2024/02/11 07:00:24;;;;;;;61.50;28.30;;;5.10;97.00;;;;;;5018165;28;20209;-90
2024/02/11 07:02:52;;;;;;;54.10;28.03;;;5.00;97.00;;;;;;5018634;28;20173;-89
2024/02/11 07:05:19;;;;;;;58.53;29.17;;;5.00;97.00;;;;;;5047135;28;20247;-92
2024/02/11 07:07:45;;;;;;;48.43;27.83;;;5.00;97.00;;;;;;5019414;28;20279;-91
2024/02/11 07:10:11;;;;;;;58.30;27.03;;;5.00;96.90;;;;;;5019020;28;20183;-89
2024/02/11 07:12:38;;;;;;;51.07;27.43;;;5.00;96.90;;;;;;5018260;28;20284;-89
2024/02/11 07:15:04;;;;;;;56.17;26.73;;;5.00;96.90;;;;;;5017855;28;20558;-89
2024/02/11 07:17:30;;;;;;;49.80;27.10;;;5.00;96.90;;;;;;5017762;28;20231;-89
2024/02/11 07:19:56;;;;;;;55.13;27.53;;;5.00;96.90;;;;;;5017815;28;20232;-89
2024/02/11 07:22:21;;;;;;;60.70;28.03;;;5.00;96.90;;;;;;5017803;28;20173;-88
2024/02/11 07:24:47;;;;;;;51.57;26.60;;;5.00;96.90;;;;;;5035646;28;20161;-88
2024/02/11 07:27:14;;;;;;;49.07;27.00;;;5.00;96.90;;;;;;5017928;28;20223;-89
2024/02/11 07:29:41;;;;;;;59.03;28.27;;;5.00;96.90;;;;;;5018036;28;20177;-88
2024/02/11 07:32:06;;;;;;;53.30;27.53;;;5.00;96.90;;;;;;5017668;28;20220;-89
2024/02/11 07:34:32;;;;;;;52.47;28.67;;;5.00;96.90;;;;;;5017724;28;20175;-90
2024/02/11 07:37:02;;;;;;;52.60;28.37;;;5.00;96.90;;;;;;5017778;28;20314;-89
2024/02/11 07:39:28;;;;;;;55.07;28.63;;;5.00;96.90;;;;;;5017902;28;20642;-89
2024/02/11 07:41:54;;;;;;;55.10;26.60;;;5.00;96.90;;;;;;5017460;28;20189;-90
2024/02/11 07:44:20;;;;;;;59.03;29.20;;;5.00;96.90;;;;;;5017400;28;20169;-89
2024/02/11 07:46:45;;;;;;;50.37;26.57;;;5.00;96.90;;;;;;5017468;28;20192;-89
2024/02/11 07:49:13;;;;;;;53.33;27.93;;;5.00;96.90;;;;;;5017385;28;20215;-90
2024/02/11 07:51:44;;;;;;;61.60;32.47;;;5.00;96.90;;;;;;5017163;28;20196;-89
2024/02/11 07:54:12;;;;;;;59.30;31.40;;;5.00;96.90;;;;;;5017292;28;20186;-89
2024/02/11 07:56:43;;;;;;;49.07;27.57;;;5.00;96.90;;;;;;5017166;28;20177;-90
2024/02/11 07:59:11;;;;;;;60.63;31.97;;;5.00;96.90;;;;;;5017068;28;20730;-91
2024/02/11 08:01:37;;;;;;;68.60;33.07;;;5.00;96.90;;;;;;5016974;28;20251;-90
2024/02/11 08:04:03;;;;;;;63.60;32.57;;;5.10;96.90;;;;;;5034598;28;20164;-89
2024/02/11 08:06:29;;;;;;;69.27;33.53;;;5.10;96.90;;;;;;5017326;28;20248;-89
2024/02/11 08:08:55;;;;;;;68.17;32.50;;;5.10;97.00;;;;;;5016736;28;20205;-90
2024/02/11 08:11:23;;;;;;;58.13;31.97;;;5.00;96.90;;;;;;5016795;28;20202;-89
2024/02/11 08:13:54;;;;;;;63.50;33.13;;;5.00;97.00;;;;;;5016754;28;20184;-89
2024/02/11 08:16:22;;;;;;;59.17;31.90;;;5.00;97.00;;;;;;5016878;28;20187;-90
2024/02/11 08:18:48;;;;;;;49.40;28.17;;;5.00;97.00;;;;;;5034877;28;20195;-90
2024/02/11 08:21:13;;;;;;;56.80;28.73;;;5.10;97.00;;;;;;5016697;28;20200;-89
2024/02/11 08:23:39;;;;;;;68.73;32.17;;;5.00;97.00;;;;;;5034461;28;20545;-91
2024/02/11 08:26:06;;;;;;;64.10;32.13;;;5.00;97.00;;;;;;5016917;28;20638;-87
2024/02/11 08:28:32;;;;;;;62.83;33.20;;;5.00;97.00;;;;;;5016607;28;20192;-89
2024/02/11 08:30:58;;;;;;;67.70;32.47;;;5.00;97.00;;;;;;5016612;28;20177;-89
2024/02/11 08:33:24;;;;;;;67.87;32.73;;;5.00;97.00;;;;;;5016535;28;20222;-87
2024/02/11 08:35:51;;;;;;;53.30;27.60;;;5.10;97.00;;;;;;5016773;28;20271;-88
2024/02/11 08:38:16;;;;;;;65.33;34.20;;;5.10;97.10;;;;;;5016189;28;20200;-90
2024/02/11 08:40:43;;;;;;;69.93;33.97;;;5.10;97.10;;;;;;5016470;28;20254;-88
2024/02/11 08:43:08;;;;;;;61.10;31.27;;;5.00;97.10;;;;;;5016495;28;20183;-88
2024/02/11 08:45:34;;;;;;;60.80;30.93;;;5.00;97.10;;;;;;5017480;28;20244;-91
2024/02/11 08:48:00;;;;;;;64.77;33.93;;;5.10;97.10;;;;;;5017269;28;20231;-90
2024/02/11 08:50:26;;;;;;;59.47;31.40;;;5.10;97.10;;;;;;5033979;28;20227;-89
2024/02/11 08:52:52;;;;;;;60.70;31.50;;;5.10;97.10;;;;;;5017356;28;20188;-92
2024/02/11 08:55:18;;;;;;;68.57;32.07;;;5.10;97.10;;;;;;5027206;28;20184;-89
2024/02/11 08:57:47;;;;;;;63.93;30.80;;;5.10;97.10;;;;;;5016234;28;20292;-89
2024/02/11 09:00:14;;;;;;;61.13;30.60;;;5.10;97.10;;;;;;5016138;28;20201;-89
2024/02/11 09:02:42;;;;;;;60.53;32.20;;;5.10;97.10;;;;;;5016283;28;20207;-90
2024/02/11 09:05:08;;;;;;;73.47;33.00;;;5.10;97.10;;;;;;5033699;28;20218;-89
2024/02/11 09:07:36;;;;;;;58.10;29.30;;;5.20;97.10;;;;;;5016064;28;20200;-87
2024/02/11 09:10:02;;;;;;;65.83;32.50;;;5.20;97.10;;;;;;5016148;28;20192;-89
2024/02/11 09:12:28;;;;;;;55.93;29.30;;;5.10;97.10;;;;;;5016285;28;20181;-89
2024/02/11 09:14:54;;;;;;;66.27;30.23;;;5.20;97.10;;;;;;5016201;28;20176;-90
2024/02/11 09:17:20;;;;;;;53.60;30.17;;;5.10;97.10;;;;;;5016127;28;20742;-90
2024/02/11 09:19:46;;;;;;;54.50;28.37;;;5.20;97.10;;;;;;5017323;28;20236;-90
2024/02/11 09:22:12;;;;;;;51.20;27.90;;;5.20;97.10;;;;;;5016090;28;20164;-89
2024/02/11 09:24:38;;;;;;;47.50;24.77;;;5.20;97.10;;;;;;5015913;28;20173;-89
2024/02/11 09:27:07;;;;;;;51.77;28.37;;;5.30;97.10;;;;;;5018369;28;20590;-90
2024/02/11 09:29:33;;;;;;;41.63;24.63;;;5.20;97.10;;;;;;5023179;28;20179;-89
2024/02/11 09:31:58;;;;;;;42.20;22.43;;;5.20;97.00;;;;;;5022704;28;20176;-90
2024/02/11 09:34:24;;;;;;;39.77;22.73;;;5.20;97.00;;;;;;5024001;28;20175;-87
2024/02/11 09:36:53;;;;;;;40.30;23.13;;;5.20;97.00;;;;;;5024406;28;20172;-88
2024/02/11 09:39:19;;;;;;;45.20;23.70;;;5.20;96.90;;;;;;5022709;28;20200;-88
2024/02/11 09:41:45;;;;;;;53.97;26.50;;;5.30;96.90;;;;;;5022167;28;20246;-90
2024/02/11 09:44:13;;;;;;;55.73;27.67;;;5.30;96.90;;;;;;5023231;28;20172;-89
2024/02/11 09:46:40;;;;;;;47.80;23.33;;;5.20;96.90;;;;;;5022897;28;20556;-90
2024/02/11 09:49:17;;;;;;;45.10;22.67;;;5.30;96.90;;;;;;5022496;28;20192;-90
2024/02/11 09:51:45;;;;;;;55.93;29.37;;;5.30;96.90;;;;;;5022491;28;20215;-89
2024/02/11 09:54:13;;;;;;;55.13;29.20;;;5.30;96.80;;;;;;5022375;28;20164;-90
2024/02/11 09:56:39;;;;;;;56.87;29.30;;;5.30;96.80;;;;;;5021982;28;20177;-90
2024/02/11 09:59:05;;;;;;;59.57;30.73;;;5.30;96.80;;;;;;5022115;28;20196;-90
2024/02/11 10:01:32;;;;;;;61.10;30.90;;;5.30;96.80;;;;;;5022055;28;20269;-90
2024/02/11 10:04:04;;;;;;;58.13;27.97;;;5.30;96.80;;;;;;5022261;28;20176;-89
2024/02/11 10:06:42;;;;;;;64.33;31.67;;;5.30;96.80;;;;;;5022071;28;20242;-90
2024/02/11 10:09:10;;;;;;;62.43;30.57;;;5.40;96.80;;;;;;5021735;28;20203;-88
2024/02/11 10:11:37;;;;;;;56.67;29.10;;;5.40;96.80;;;;;;5021845;28;20271;-89
2024/02/11 10:14:08;;;;;;;62.53;30.97;;;5.40;96.80;;;;;;5021962;28;20181;-90
2024/02/11 10:16:35;;;;;;;59.50;34.60;;;5.50;96.80;;;;;;5023500;28;20433;-88
2024/02/11 10:19:01;;;;;;;65.23;30.73;;;5.50;96.80;;;;;;5021988;28;20435;-89
2024/02/11 10:21:28;;;;;;;56.07;29.93;;;5.50;96.80;;;;;;5023582;28;20262;-91
2024/02/11 10:23:54;;;;;;;62.57;30.87;;;5.50;96.80;;;;;;5022903;28;20179;-90
2024/02/11 10:26:20;;;;;;;59.30;30.47;;;5.50;96.70;;;;;;5022273;28;20177;-88
2024/02/11 10:28:46;;;;;;;60.23;31.87;;;5.50;96.70;;;;;;5021687;28;20566;-90
2024/02/11 10:31:12;;;;;;;57.60;30.10;;;5.60;96.70;;;;;;5021836;28;20302;-89
2024/02/11 10:33:39;;;;;;;56.37;30.63;;;5.60;96.70;;;;;;5022013;28;20180;-90
2024/02/11 10:36:06;;;;;;;59.40;30.83;;;5.60;96.70;;;;;;5021792;28;20645;-90
2024/02/11 10:38:33;;;;;;;56.17;31.93;;;5.60;96.60;;;;;;5019306;28;20197;-90
2024/02/11 10:41:01;;;;;;;58.97;31.73;;;5.60;96.60;;;;;;5018532;28;20307;-90
2024/02/11 10:43:27;;;;;;;58.77;30.70;;;5.60;96.60;;;;;;5018525;28;20188;-88
2024/02/11 10:45:54;;;;;;;60.33;32.23;;;5.60;96.60;;;;;;5018344;28;20204;-88
2024/02/11 10:48:19;;;;;;;59.40;34.10;;;5.60;96.60;;;;;;5018441;28;20674;-90
2024/02/11 10:51:14;;;;;;;50.50;29.07;;;5.60;96.60;;;;;;5018369;28;20254;-88
2024/02/11 10:53:45;;;;;;;49.73;30.10;;;5.60;96.50;;;;;;5018350;28;20219;-88
2024/02/11 10:56:13;;;;;;;55.03;30.90;;;5.60;96.50;;;;;;5018554;28;20176;-88
2024/02/11 10:58:57;;;;;;;55.60;32.23;;;5.60;96.50;;;;;;5035827;28;20196;-90
2024/02/11 11:01:24;;;;;;;53.90;30.17;;;5.60;96.40;;;;;;5018029;28;20224;-89
2024/02/11 11:03:50;;;;;;;54.07;32.03;;;5.60;96.40;;;;;;5018036;28;20267;-88
2024/02/11 11:06:18;;;;;;;57.40;32.57;;;5.60;96.40;;;;;;5017885;28;20177;-88
2024/02/11 11:08:45;;;;;;;56.97;33.43;;;5.70;96.40;;;;;;5037138;28;20203;-91
2024/02/11 11:11:12;;;;;;;51.97;30.70;;;5.70;96.40;;;;;;5018070;28;20645;-90
2024/02/11 11:13:37;;;;;;;55.93;30.30;;;5.60;96.40;;;;;;5017966;28;20230;-90
2024/02/11 11:16:04;;;;;;;49.27;31.63;;;5.70;96.30;;;;;;5035550;28;20618;-89
2024/02/11 11:18:37;;;;;;;53.57;34.50;;;5.70;96.30;;;;;;5017703;28;20274;-89
2024/02/11 11:21:07;;;;;;;50.03;31.20;;;5.70;96.30;;;;;;5017671;28;20200;-89
2024/02/11 11:23:35;;;;;;;46.97;27.87;;;5.70;96.20;;;;;;5018834;28;20540;-91
2024/02/11 11:26:01;;;;;;;53.83;31.30;;;5.70;96.20;;;;;;5018820;28;20177;-89
2024/02/11 11:28:30;;;;;;;54.20;31.40;;;5.70;96.10;;;;;;5017660;28;20275;-89
2024/02/11 11:30:57;;;;;;;52.83;32.27;;;5.80;96.10;;;;;;5017665;28;20177;-90
2024/02/11 11:33:23;;;;;;;51.43;31.87;;;5.80;96.00;;;;;;5017320;28;20174;-90
2024/02/11 11:35:58;;;;;;;52.63;32.00;;;5.70;96.00;;;;;;5017591;28;20671;-89
2024/02/11 11:38:26;;;;;;;47.17;31.03;;;5.80;95.90;;;;;;5017680;28;20701;-90
2024/02/11 11:40:53;;;;;;;48.00;32.30;;;5.80;95.90;;;;;;5018438;28;20209;-89
2024/02/11 11:43:23;;;;;;;44.53;28.60;;;5.80;95.90;;;;;;5019654;28;20219;-90
2024/02/11 11:45:58;;;;;;;44.90;29.23;;;5.80;95.80;;;;;;5018769;28;20172;-89
2024/02/11 11:48:25;;;;;;;54.53;31.30;;;5.80;95.80;;;;;;5018672;28;20214;-90
2024/02/11 11:50:54;;;;;;;51.00;30.97;;;5.80;95.80;;;;;;5018083;28;20185;-89
2024/02/11 11:53:21;;;;;;;50.80;32.33;;;5.80;95.70;;;;;;5017327;28;20199;-89
2024/02/11 11:55:56;;;;;;;45.90;29.53;;;5.80;95.70;;;;;;5017760;28;20188;-89
2024/02/11 11:58:26;;;;;;;50.33;30.90;;;5.80;95.70;;;;;;5017512;28;20196;-89
2024/02/11 12:00:56;;;;;;;46.73;29.50;;;5.80;95.70;;;;;;5035261;28;20204;-89
2024/02/11 12:03:22;;;;;;;45.20;29.03;;;5.80;95.60;;;;;;5018030;28;20521;-89
2024/02/11 12:05:48;;;;;;;47.17;29.47;;;5.80;95.60;;;;;;5017475;28;20176;-89
2024/02/11 12:08:15;;;;;;;50.63;31.50;;;5.80;95.60;;;;;;5035476;28;20185;-90
2024/02/11 12:10:40;;;;;;;46.83;30.83;;;5.90;95.50;;;;;;5017412;28;20196;-90
2024/02/11 12:13:09;;;;;;;45.10;31.07;;;5.80;95.50;;;;;;5034948;28;20172;-89
2024/02/11 12:15:35;;;;;;;52.00;30.97;;;5.90;95.50;;;;;;5018071;28;20231;-91
2024/02/11 12:18:01;;;;;;;54.90;33.70;;;5.90;95.40;;;;;;5017913;28;20201;-90
2024/02/11 12:20:27;;;;;;;54.53;34.00;;;5.90;95.40;;;;;;5018261;28;20295;-90
2024/02/11 12:22:54;;;;;;;49.40;30.40;;;5.90;95.40;;;;;;5019318;28;20714;-90
2024/02/11 12:25:22;;;;;;;56.67;31.40;;;5.80;95.40;;;;;;5018487;28;20556;-89
2024/02/11 12:27:50;;;;;;;48.17;30.83;;;5.80;95.40;;;;;;5021053;28;20328;-90
2024/02/11 12:30:23;;;;;;;54.53;31.63;;;5.80;95.40;;;;;;5018992;28;20172;-91
2024/02/11 12:32:52;;;;;;;50.90;30.80;;;5.80;95.40;;;;;;5019146;28;20208;-91
2024/02/11 12:35:28;;;;;;;55.77;29.33;;;5.80;95.40;;;;;;5018703;28;25065;-89
2024/02/11 12:37:56;;;;;;;55.50;31.00;;;5.80;95.40;;;;;;5037039;28;20118;-90